sensor_id;sensor_type;location;lat;lon;timestamp;temperature;humidity
66928;DHT22;59882;45.624;11.698;2022-11-20T00:00:04;9.50;73.50
66928;DHT22;59882;45.624;11.698;2022-11-20T00:02:29;9.50;73.70
66928;DHT22;59882;45.624;11.698;2022-11-20T00:04:55;9.50;73.80
66928;DHT22;59882;45.624;11.698;2022-11-20T00:07:21;9.40;73.80
66928;DHT22;59882;45.624;11.698;2022-11-20T00:09:46;9.40;73.90
66928;DHT22;59882;45.624;11.698;2022-11-20T00:12:12;9.40;74.00
66928;DHT22;59882;45.624;11.698;2022-11-20T00:14:38;9.40;74.00
66928;DHT22;59882;45.624;11.698;2022-11-20T00:17:03;9.40;74.00
66928;DHT22;59882;45.624;11.698;2022-11-20T00:19:29;9.30;74.20
66928;DHT22;59882;45.624;11.698;2022-11-20T00:21:55;9.30;74.20
66928;DHT22;59882;45.624;11.698;2022-11-20T00:24:21;9.30;74.20
66928;DHT22;59882;45.624;11.698;2022-11-20T00:26:46;9.30;74.20
66928;DHT22;59882;45.624;11.698;2022-11-20T00:29:12;9.30;74.30
66928;DHT22;59882;45.624;11.698;2022-11-20T00:31:38;9.20;74.40
66928;DHT22;59882;45.624;11.698;2022-11-20T00:34:03;9.10;74.30
66928;DHT22;59882;45.624;11.698;2022-11-20T00:36:33;9.20;74.40
66928;DHT22;59882;45.624;11.698;2022-11-20T00:38:59;9.10;74.50
66928;DHT22;59882;45.624;11.698;2022-11-20T00:41:26;9.20;74.50
66928;DHT22;59882;45.624;11.698;2022-11-20T00:43:54;9.10;74.60
66928;DHT22;59882;45.624;11.698;2022-11-20T00:46:22;9.10;74.50
66928;DHT22;59882;45.624;11.698;2022-11-20T00:48:48;9.10;74.50
66928;DHT22;59882;45.624;11.698;2022-11-20T00:51:16;9.10;74.70
66928;DHT22;59882;45.624;11.698;2022-11-20T00:53:42;9.00;74.60
66928;DHT22;59882;45.624;11.698;2022-11-20T00:56:11;9.00;74.90
66928;DHT22;59882;45.624;11.698;2022-11-20T00:58:38;9.00;74.80
66928;DHT22;59882;45.624;11.698;2022-11-20T01:03:39;8.90;74.60
66928;DHT22;59882;45.624;11.698;2022-11-20T01:06:12;8.90;74.80
66928;DHT22;59882;45.624;11.698;2022-11-20T01:08:38;8.90;74.70
66928;DHT22;59882;45.624;11.698;2022-11-20T01:11:07;8.90;74.70
66928;DHT22;59882;45.624;11.698;2022-11-20T01:13:33;8.80;74.90
66928;DHT22;59882;45.624;11.698;2022-11-20T01:18:32;8.80;74.80
66928;DHT22;59882;45.624;11.698;2022-11-20T01:21:03;8.80;74.80
66928;DHT22;59882;45.624;11.698;2022-11-20T01:23:37;8.80;74.90
66928;DHT22;59882;45.624;11.698;2022-11-20T01:26:08;8.80;75.10
66928;DHT22;59882;45.624;11.698;2022-11-20T01:28:34;8.80;75.00
66928;DHT22;59882;45.624;11.698;2022-11-20T01:31:00;8.80;74.90
66928;DHT22;59882;45.624;11.698;2022-11-20T01:33:26;8.80;74.80
66928;DHT22;59882;45.624;11.698;2022-11-20T01:35:52;8.80;74.80
66928;DHT22;59882;45.624;11.698;2022-11-20T01:38:18;8.80;74.90
66928;DHT22;59882;45.624;11.698;2022-11-20T01:40:53;8.80;74.90
66928;DHT22;59882;45.624;11.698;2022-11-20T01:43:20;8.70;74.90
66928;DHT22;59882;45.624;11.698;2022-11-20T01:46:00;8.80;75.00
66928;DHT22;59882;45.624;11.698;2022-11-20T01:50:58;8.70;74.90
66928;DHT22;59882;45.624;11.698;2022-11-20T01:53:27;8.70;75.00
66928;DHT22;59882;45.624;11.698;2022-11-20T01:55:55;8.70;75.00
66928;DHT22;59882;45.624;11.698;2022-11-20T01:58:29;8.70;75.10
66928;DHT22;59882;45.624;11.698;2022-11-20T02:00:56;8.60;75.00
66928;DHT22;59882;45.624;11.698;2022-11-20T02:03:21;8.60;75.00
66928;DHT22;59882;45.624;11.698;2022-11-20T02:08:13;8.60;75.00
66928;DHT22;59882;45.624;11.698;2022-11-20T02:10:39;8.50;75.20
66928;DHT22;59882;45.624;11.698;2022-11-20T02:13:05;8.50;75.30
66928;DHT22;59882;45.624;11.698;2022-11-20T02:15:49;8.40;75.30
66928;DHT22;59882;45.624;11.698;2022-11-20T02:18:18;8.40;75.40
66928;DHT22;59882;45.624;11.698;2022-11-20T02:20:46;8.40;75.60
66928;DHT22;59882;45.624;11.698;2022-11-20T02:23:24;8.30;75.50
66928;DHT22;59882;45.624;11.698;2022-11-20T02:25:53;8.30;75.50
66928;DHT22;59882;45.624;11.698;2022-11-20T02:28:19;8.30;75.60
66928;DHT22;59882;45.624;11.698;2022-11-20T02:30:45;8.30;75.70
66928;DHT22;59882;45.624;11.698;2022-11-20T02:33:11;8.30;75.60
66928;DHT22;59882;45.624;11.698;2022-11-20T02:35:42;8.30;75.60
66928;DHT22;59882;45.624;11.698;2022-11-20T02:38:08;8.20;75.90
66928;DHT22;59882;45.624;11.698;2022-11-20T02:40:34;8.20;75.80
66928;DHT22;59882;45.624;11.698;2022-11-20T02:42:59;8.20;75.80
66928;DHT22;59882;45.624;11.698;2022-11-20T02:45:25;8.10;75.90
66928;DHT22;59882;45.624;11.698;2022-11-20T02:47:51;8.10;75.90
66928;DHT22;59882;45.624;11.698;2022-11-20T02:50:17;8.00;76.20
66928;DHT22;59882;45.624;11.698;2022-11-20T02:52:43;8.00;76.10
66928;DHT22;59882;45.624;11.698;2022-11-20T02:55:09;8.00;76.20
66928;DHT22;59882;45.624;11.698;2022-11-20T02:57:34;7.90;76.20
66928;DHT22;59882;45.624;11.698;2022-11-20T03:00:00;7.90;76.30
66928;DHT22;59882;45.624;11.698;2022-11-20T03:02:30;7.90;76.40
66928;DHT22;59882;45.624;11.698;2022-11-20T03:04:55;7.80;76.50
66928;DHT22;59882;45.624;11.698;2022-11-20T03:07:21;7.80;76.50
66928;DHT22;59882;45.624;11.698;2022-11-20T03:09:47;7.80;76.70
66928;DHT22;59882;45.624;11.698;2022-11-20T03:12:12;7.80;76.80
66928;DHT22;59882;45.624;11.698;2022-11-20T03:14:38;7.80;77.00
66928;DHT22;59882;45.624;11.698;2022-11-20T03:17:04;7.80;76.90
66928;DHT22;59882;45.624;11.698;2022-11-20T03:19:29;7.80;77.00
66928;DHT22;59882;45.624;11.698;2022-11-20T03:21:55;7.80;77.10
66928;DHT22;59882;45.624;11.698;2022-11-20T03:24:21;7.80;77.00
66928;DHT22;59882;45.624;11.698;2022-11-20T03:26:46;7.80;77.00
66928;DHT22;59882;45.624;11.698;2022-11-20T03:29:12;7.80;77.00
66928;DHT22;59882;45.624;11.698;2022-11-20T03:31:39;7.70;77.10
66928;DHT22;59882;45.624;11.698;2022-11-20T03:34:06;7.70;77.20
66928;DHT22;59882;45.624;11.698;2022-11-20T03:36:32;7.60;77.30
66928;DHT22;59882;45.624;11.698;2022-11-20T03:38:58;7.60;77.50
66928;DHT22;59882;45.624;11.698;2022-11-20T03:41:27;7.50;77.20
66928;DHT22;59882;45.624;11.698;2022-11-20T03:44:01;7.50;77.20
66928;DHT22;59882;45.624;11.698;2022-11-20T03:46:28;7.50;77.00
66928;DHT22;59882;45.624;11.698;2022-11-20T03:48:54;7.50;77.00
66928;DHT22;59882;45.624;11.698;2022-11-20T03:53:46;7.40;76.90
66928;DHT22;59882;45.624;11.698;2022-11-20T03:56:14;7.40;76.80
66928;DHT22;59882;45.624;11.698;2022-11-20T03:58:40;7.30;76.80
66928;DHT22;59882;45.624;11.698;2022-11-20T04:01:12;7.30;76.90
66928;DHT22;59882;45.624;11.698;2022-11-20T04:03:39;7.30;76.90
66928;DHT22;59882;45.624;11.698;2022-11-20T04:08:32;7.20;76.90
66928;DHT22;59882;45.624;11.698;2022-11-20T04:11:11;7.10;76.90
66928;DHT22;59882;45.624;11.698;2022-11-20T04:13:38;7.10;76.90
66928;DHT22;59882;45.624;11.698;2022-11-20T04:16:05;7.10;77.00
66928;DHT22;59882;45.624;11.698;2022-11-20T04:18:31;7.20;77.10
66928;DHT22;59882;45.624;11.698;2022-11-20T04:20:57;7.10;77.00
66928;DHT22;59882;45.624;11.698;2022-11-20T04:23:24;7.10;77.10
66928;DHT22;59882;45.624;11.698;2022-11-20T04:25:50;7.10;77.30
66928;DHT22;59882;45.624;11.698;2022-11-20T04:28:15;7.10;77.20
66928;DHT22;59882;45.624;11.698;2022-11-20T04:30:41;7.10;77.10
66928;DHT22;59882;45.624;11.698;2022-11-20T04:33:07;7.10;77.10
66928;DHT22;59882;45.624;11.698;2022-11-20T04:35:36;7.10;76.90
66928;DHT22;59882;45.624;11.698;2022-11-20T04:38:02;7.10;77.00
66928;DHT22;59882;45.624;11.698;2022-11-20T04:40:28;7.10;76.90
66928;DHT22;59882;45.624;11.698;2022-11-20T04:42:54;7.00;76.90
66928;DHT22;59882;45.624;11.698;2022-11-20T04:45:20;7.00;76.80
66928;DHT22;59882;45.624;11.698;2022-11-20T04:47:46;7.00;76.10
66928;DHT22;59882;45.624;11.698;2022-11-20T04:50:12;6.90;76.20
66928;DHT22;59882;45.624;11.698;2022-11-20T04:52:37;6.80;76.50
66928;DHT22;59882;45.624;11.698;2022-11-20T04:55:03;6.80;76.60
66928;DHT22;59882;45.624;11.698;2022-11-20T04:57:29;6.70;77.00
66928;DHT22;59882;45.624;11.698;2022-11-20T04:59:54;6.60;77.20
66928;DHT22;59882;45.624;11.698;2022-11-20T05:02:20;6.60;77.10
66928;DHT22;59882;45.624;11.698;2022-11-20T05:04:46;6.60;77.30
66928;DHT22;59882;45.624;11.698;2022-11-20T05:07:12;6.60;77.40
66928;DHT22;59882;45.624;11.698;2022-11-20T05:09:37;6.60;77.40
66928;DHT22;59882;45.624;11.698;2022-11-20T05:12:03;6.60;77.30
66928;DHT22;59882;45.624;11.698;2022-11-20T05:14:29;6.50;77.60
66928;DHT22;59882;45.624;11.698;2022-11-20T05:16:54;6.40;77.70
66928;DHT22;59882;45.624;11.698;2022-11-20T05:19:20;6.30;77.90
66928;DHT22;59882;45.624;11.698;2022-11-20T05:21:46;6.30;78.10
66928;DHT22;59882;45.624;11.698;2022-11-20T05:24:11;6.30;78.00
66928;DHT22;59882;45.624;11.698;2022-11-20T05:26:37;6.30;78.20
66928;DHT22;59882;45.624;11.698;2022-11-20T05:29:03;6.30;78.40
66928;DHT22;59882;45.624;11.698;2022-11-20T05:31:28;6.30;78.50
66928;DHT22;59882;45.624;11.698;2022-11-20T05:33:55;6.20;78.30
66928;DHT22;59882;45.624;11.698;2022-11-20T05:36:21;6.20;78.30
66928;DHT22;59882;45.624;11.698;2022-11-20T05:38:47;6.20;78.40
66928;DHT22;59882;45.624;11.698;2022-11-20T05:41:18;6.10;78.50
66928;DHT22;59882;45.624;11.698;2022-11-20T05:43:45;6.10;78.60
66928;DHT22;59882;45.624;11.698;2022-11-20T05:46:13;6.00;78.90
66928;DHT22;59882;45.624;11.698;2022-11-20T05:48:40;6.00;78.90
66928;DHT22;59882;45.624;11.698;2022-11-20T05:51:09;6.00;78.90
66928;DHT22;59882;45.624;11.698;2022-11-20T05:53:36;5.90;79.20
66928;DHT22;59882;45.624;11.698;2022-11-20T05:56:06;5.90;79.30
66928;DHT22;59882;45.624;11.698;2022-11-20T05:58:33;5.90;79.40
66928;DHT22;59882;45.624;11.698;2022-11-20T06:03:40;5.80;79.80
66928;DHT22;59882;45.624;11.698;2022-11-20T06:06:08;5.80;79.80
66928;DHT22;59882;45.624;11.698;2022-11-20T06:08:34;5.80;79.80
66928;DHT22;59882;45.624;11.698;2022-11-20T06:11:06;5.80;79.70
66928;DHT22;59882;45.624;11.698;2022-11-20T06:13:33;5.80;79.70
66928;DHT22;59882;45.624;11.698;2022-11-20T06:15:58;5.80;79.50
66928;DHT22;59882;45.624;11.698;2022-11-20T06:18:26;5.80;79.40
66928;DHT22;59882;45.624;11.698;2022-11-20T06:21:09;5.80;79.40
66928;DHT22;59882;45.624;11.698;2022-11-20T06:23:36;5.80;79.40
66928;DHT22;59882;45.624;11.698;2022-11-20T06:26:04;5.80;79.50
66928;DHT22;59882;45.624;11.698;2022-11-20T06:28:30;5.80;79.60
66928;DHT22;59882;45.624;11.698;2022-11-20T06:30:56;5.70;79.70
66928;DHT22;59882;45.624;11.698;2022-11-20T06:33:22;5.80;79.70
66928;DHT22;59882;45.624;11.698;2022-11-20T06:35:47;5.80;79.60
66928;DHT22;59882;45.624;11.698;2022-11-20T06:38:13;5.80;79.60
66928;DHT22;59882;45.624;11.698;2022-11-20T06:40:42;5.70;79.80
66928;DHT22;59882;45.624;11.698;2022-11-20T06:43:11;5.70;79.80
66928;DHT22;59882;45.624;11.698;2022-11-20T06:45:37;5.70;79.80
66928;DHT22;59882;45.624;11.698;2022-11-20T06:48:03;5.80;79.70
66928;DHT22;59882;45.624;11.698;2022-11-20T06:50:29;5.80;79.60
66928;DHT22;59882;45.624;11.698;2022-11-20T06:52:54;5.80;79.50
66928;DHT22;59882;45.624;11.698;2022-11-20T06:55:20;5.80;79.30
66928;DHT22;59882;45.624;11.698;2022-11-20T06:57:46;5.80;79.30
66928;DHT22;59882;45.624;11.698;2022-11-20T07:00:12;5.80;79.30
66928;DHT22;59882;45.624;11.698;2022-11-20T07:02:38;5.80;79.30
66928;DHT22;59882;45.624;11.698;2022-11-20T07:05:04;5.80;79.20
66928;DHT22;59882;45.624;11.698;2022-11-20T07:07:30;5.80;79.00
66928;DHT22;59882;45.624;11.698;2022-11-20T07:09:55;5.80;79.10
66928;DHT22;59882;45.624;11.698;2022-11-20T07:12:21;5.80;78.90
66928;DHT22;59882;45.624;11.698;2022-11-20T07:14:46;5.90;78.90
66928;DHT22;59882;45.624;11.698;2022-11-20T07:17:12;5.90;78.80
66928;DHT22;59882;45.624;11.698;2022-11-20T07:19:38;5.90;78.60
66928;DHT22;59882;45.624;11.698;2022-11-20T07:22:04;6.00;78.40
66928;DHT22;59882;45.624;11.698;2022-11-20T07:24:29;6.00;78.40
66928;DHT22;59882;45.624;11.698;2022-11-20T07:26:55;6.00;78.30
66928;DHT22;59882;45.624;11.698;2022-11-20T07:29:21;6.10;78.00
66928;DHT22;59882;45.624;11.698;2022-11-20T07:31:46;6.10;77.90
66928;DHT22;59882;45.624;11.698;2022-11-20T07:34:12;6.10;77.90
66928;DHT22;59882;45.624;11.698;2022-11-20T07:36:37;6.10;77.90
66928;DHT22;59882;45.624;11.698;2022-11-20T07:39:04;6.10;77.50
66928;DHT22;59882;45.624;11.698;2022-11-20T07:41:29;6.10;77.70
66928;DHT22;59882;45.624;11.698;2022-11-20T07:43:55;6.20;77.70
66928;DHT22;59882;45.624;11.698;2022-11-20T07:46:20;6.20;77.50
66928;DHT22;59882;45.624;11.698;2022-11-20T07:48:46;6.30;77.40
66928;DHT22;59882;45.624;11.698;2022-11-20T07:51:12;6.30;77.40
66928;DHT22;59882;45.624;11.698;2022-11-20T07:53:38;6.30;77.30
66928;DHT22;59882;45.624;11.698;2022-11-20T07:56:04;6.30;77.40
66928;DHT22;59882;45.624;11.698;2022-11-20T07:58:30;6.40;77.30
66928;DHT22;59882;45.624;11.698;2022-11-20T08:01:02;6.40;77.30
66928;DHT22;59882;45.624;11.698;2022-11-20T08:03:27;6.50;77.30
66928;DHT22;59882;45.624;11.698;2022-11-20T08:05:53;6.50;76.40
66928;DHT22;59882;45.624;11.698;2022-11-20T08:08:19;6.60;76.70
66928;DHT22;59882;45.624;11.698;2022-11-20T08:10:44;6.70;76.90
66928;DHT22;59882;45.624;11.698;2022-11-20T08:13:10;6.70;77.00
66928;DHT22;59882;45.624;11.698;2022-11-20T08:15:54;6.80;76.90
66928;DHT22;59882;45.624;11.698;2022-11-20T08:18:20;6.90;77.00
66928;DHT22;59882;45.624;11.698;2022-11-20T08:20:45;7.00;77.20
66928;DHT22;59882;45.624;11.698;2022-11-20T08:23:11;7.10;77.10
66928;DHT22;59882;45.624;11.698;2022-11-20T08:25:38;7.20;77.10
66928;DHT22;59882;45.624;11.698;2022-11-20T08:28:05;7.30;76.60
66928;DHT22;59882;45.624;11.698;2022-11-20T08:30:32;7.40;76.20
66928;DHT22;59882;45.624;11.698;2022-11-20T08:33:02;7.50;75.40
66928;DHT22;59882;45.624;11.698;2022-11-20T08:35:28;7.60;75.50
66928;DHT22;59882;45.624;11.698;2022-11-20T08:37:53;7.60;75.90
66928;DHT22;59882;45.624;11.698;2022-11-20T08:40:19;7.70;76.20
66928;DHT22;59882;45.624;11.698;2022-11-20T08:42:49;7.80;76.10
66928;DHT22;59882;45.624;11.698;2022-11-20T08:45:16;7.90;76.40
66928;DHT22;59882;45.624;11.698;2022-11-20T08:47:42;7.90;76.20
66928;DHT22;59882;45.624;11.698;2022-11-20T08:50:10;8.00;76.10
66928;DHT22;59882;45.624;11.698;2022-11-20T08:52:36;8.10;76.20
66928;DHT22;59882;45.624;11.698;2022-11-20T08:55:02;8.20;76.30
66928;DHT22;59882;45.624;11.698;2022-11-20T08:57:27;8.30;76.80
66928;DHT22;59882;45.624;11.698;2022-11-20T08:59:53;8.30;77.40
66928;DHT22;59882;45.624;11.698;2022-11-20T09:02:19;8.40;77.50
66928;DHT22;59882;45.624;11.698;2022-11-20T09:04:44;8.40;77.50
66928;DHT22;59882;45.624;11.698;2022-11-20T09:07:10;8.50;77.20
66928;DHT22;59882;45.624;11.698;2022-11-20T09:09:35;8.60;76.80
66928;DHT22;59882;45.624;11.698;2022-11-20T09:12:01;8.70;76.80
66928;DHT22;59882;45.624;11.698;2022-11-20T09:14:27;8.80;75.20
66928;DHT22;59882;45.624;11.698;2022-11-20T09:16:55;8.80;74.90
66928;DHT22;59882;45.624;11.698;2022-11-20T09:19:21;8.90;74.90
66928;DHT22;59882;45.624;11.698;2022-11-20T09:21:47;8.90;74.90
66928;DHT22;59882;45.624;11.698;2022-11-20T09:24:12;9.00;74.90
66928;DHT22;59882;45.624;11.698;2022-11-20T09:26:39;9.10;74.60
66928;DHT22;59882;45.624;11.698;2022-11-20T09:29:04;9.10;74.20
66928;DHT22;59882;45.624;11.698;2022-11-20T09:31:31;9.20;73.40
66928;DHT22;59882;45.624;11.698;2022-11-20T09:33:56;9.30;73.10
66928;DHT22;59882;45.624;11.698;2022-11-20T09:36:22;9.30;72.50
66928;DHT22;59882;45.624;11.698;2022-11-20T09:38:48;9.40;72.50
66928;DHT22;59882;45.624;11.698;2022-11-20T09:44:28;9.50;72.10
66928;DHT22;59882;45.624;11.698;2022-11-20T09:47:26;9.60;71.90
66928;DHT22;59882;45.624;11.698;2022-11-20T09:53:06;9.80;71.60
66928;DHT22;59882;45.624;11.698;2022-11-20T09:55:35;9.90;71.20
66928;DHT22;59882;45.624;11.698;2022-11-20T09:58:05;9.90;71.10
66928;DHT22;59882;45.624;11.698;2022-11-20T10:00:31;10.00;71.40
66928;DHT22;59882;45.624;11.698;2022-11-20T10:03:13;10.10;71.50
66928;DHT22;59882;45.624;11.698;2022-11-20T10:05:45;10.20;70.90
66928;DHT22;59882;45.624;11.698;2022-11-20T10:08:28;10.30;71.10
66928;DHT22;59882;45.624;11.698;2022-11-20T10:11:14;10.30;71.20
66928;DHT22;59882;45.624;11.698;2022-11-20T10:13:55;10.40;71.20
66928;DHT22;59882;45.624;11.698;2022-11-20T10:21:30;10.60;71.50
66928;DHT22;59882;45.624;11.698;2022-11-20T10:25:01;10.60;71.80
66928;DHT22;59882;45.624;11.698;2022-11-20T10:30:09;10.80;72.10
66928;DHT22;59882;45.624;11.698;2022-11-20T10:32:39;10.90;73.00
66928;DHT22;59882;45.624;11.698;2022-11-20T10:35:27;11.00;72.80
66928;DHT22;59882;45.624;11.698;2022-11-20T10:37:58;11.10;72.80
66928;DHT22;59882;45.624;11.698;2022-11-20T10:40:44;11.20;72.50
66928;DHT22;59882;45.624;11.698;2022-11-20T10:43:13;11.30;72.70
66928;DHT22;59882;45.624;11.698;2022-11-20T10:46:09;11.30;72.80
66928;DHT22;59882;45.624;11.698;2022-11-20T10:48:36;11.40;73.40
66928;DHT22;59882;45.624;11.698;2022-11-20T10:56:52;11.70;72.20
66928;DHT22;59882;45.624;11.698;2022-11-20T11:01:43;11.80;72.70
66928;DHT22;59882;45.624;11.698;2022-11-20T11:07:10;11.90;71.50
66928;DHT22;59882;45.624;11.698;2022-11-20T11:09:41;12.00;71.60
66928;DHT22;59882;45.624;11.698;2022-11-20T11:12:09;12.10;72.10
66928;DHT22;59882;45.624;11.698;2022-11-20T11:14:51;12.10;71.70
66928;DHT22;59882;45.624;11.698;2022-11-20T11:22:32;12.40;69.40
66928;DHT22;59882;45.624;11.698;2022-11-20T11:24:58;12.50;70.20
66928;DHT22;59882;45.624;11.698;2022-11-20T11:27:24;12.60;69.40
66928;DHT22;59882;45.624;11.698;2022-11-20T11:30:02;12.70;69.80
66928;DHT22;59882;45.624;11.698;2022-11-20T11:32:28;12.80;65.70
66928;DHT22;59882;45.624;11.698;2022-11-20T11:35:06;12.80;65.00
66928;DHT22;59882;45.624;11.698;2022-11-20T11:37:36;12.90;65.70
66928;DHT22;59882;45.624;11.698;2022-11-20T11:40:09;13.10;65.10
66928;DHT22;59882;45.624;11.698;2022-11-20T11:42:46;13.20;64.50
66928;DHT22;59882;45.624;11.698;2022-11-20T11:45:16;13.30;63.40
66928;DHT22;59882;45.624;11.698;2022-11-20T11:47:47;13.40;63.30
66928;DHT22;59882;45.624;11.698;2022-11-20T11:50:27;13.60;63.00
66928;DHT22;59882;45.624;11.698;2022-11-20T11:53:09;13.80;62.50
66928;DHT22;59882;45.624;11.698;2022-11-20T11:55:44;13.90;62.20
66928;DHT22;59882;45.624;11.698;2022-11-20T11:58:14;14.40;60.90
66928;DHT22;59882;45.624;11.698;2022-11-20T12:00:49;15.90;60.50
66928;DHT22;59882;45.624;11.698;2022-11-20T12:03:24;17.90;54.50
66928;DHT22;59882;45.624;11.698;2022-11-20T12:06:06;20.10;49.70
66928;DHT22;59882;45.624;11.698;2022-11-20T12:11:19;23.50;41.40
66928;DHT22;59882;45.624;11.698;2022-11-20T12:13:57;24.90;37.20
66928;DHT22;59882;45.624;11.698;2022-11-20T12:16:24;26.00;35.80
66928;DHT22;59882;45.624;11.698;2022-11-20T12:18:51;27.00;34.50
66928;DHT22;59882;45.624;11.698;2022-11-20T12:35:18;30.80;28.20
66928;DHT22;59882;45.624;11.698;2022-11-20T12:41:02;31.30;24.20
66928;DHT22;59882;45.624;11.698;2022-11-20T12:43:37;31.50;24.80
66928;DHT22;59882;45.624;11.698;2022-11-20T12:47:23;31.40;23.10
66928;DHT22;59882;45.624;11.698;2022-11-20T12:49:34;31.40;24.60
66928;DHT22;59882;45.624;11.698;2022-11-20T13:00:11;31.80;23.60
66928;DHT22;59882;45.624;11.698;2022-11-20T13:08:25;32.00;23.40
66928;DHT22;59882;45.624;11.698;2022-11-20T13:13:41;31.90;22.40
66928;DHT22;59882;45.624;11.698;2022-11-20T13:16:23;31.80;20.60
66928;DHT22;59882;45.624;11.698;2022-11-20T13:18:51;31.60;23.30
66928;DHT22;59882;45.624;11.698;2022-11-20T13:21:34;31.50;21.80
66928;DHT22;59882;45.624;11.698;2022-11-20T13:24:06;31.40;21.50
66928;DHT22;59882;45.624;11.698;2022-11-20T13:26:32;31.30;22.70
66928;DHT22;59882;45.624;11.698;2022-11-20T13:29:16;31.10;23.20
66928;DHT22;59882;45.624;11.698;2022-11-20T13:31:44;31.00;22.50
66928;DHT22;59882;45.624;11.698;2022-11-20T13:34:23;30.90;22.90
66928;DHT22;59882;45.624;11.698;2022-11-20T13:36:51;30.70;23.40
66928;DHT22;59882;45.624;11.698;2022-11-20T13:39:32;30.50;23.80
66928;DHT22;59882;45.624;11.698;2022-11-20T13:44:42;30.10;23.90
66928;DHT22;59882;45.624;11.698;2022-11-20T13:47:26;29.90;23.80
66928;DHT22;59882;45.624;11.698;2022-11-20T13:49:54;29.60;24.80
66928;DHT22;59882;45.624;11.698;2022-11-20T13:57:48;28.20;25.60
66928;DHT22;59882;45.624;11.698;2022-11-20T14:00:21;27.20;26.30
66928;DHT22;59882;45.624;11.698;2022-11-20T14:03:20;26.30;27.30
66928;DHT22;59882;45.624;11.698;2022-11-20T14:05:55;25.40;28.00
66928;DHT22;59882;45.624;11.698;2022-11-20T14:08:38;24.40;29.10
66928;DHT22;59882;45.624;11.698;2022-11-20T14:11:15;23.60;29.50
66928;DHT22;59882;45.624;11.698;2022-11-20T14:14:04;22.90;30.50
66928;DHT22;59882;45.624;11.698;2022-11-20T14:16:35;22.10;31.80
66928;DHT22;59882;45.624;11.698;2022-11-20T14:21:53;20.80;34.60
66928;DHT22;59882;45.624;11.698;2022-11-20T14:24:22;20.30;36.10
66928;DHT22;59882;45.624;11.698;2022-11-20T14:26:48;19.90;37.40
66928;DHT22;59882;45.624;11.698;2022-11-20T14:29:21;19.50;38.20
66928;DHT22;59882;45.624;11.698;2022-11-20T14:31:50;19.10;39.30
66928;DHT22;59882;45.624;11.698;2022-11-20T14:34:29;18.80;40.30
66928;DHT22;59882;45.624;11.698;2022-11-20T14:37:03;18.40;41.20
66928;DHT22;59882;45.624;11.698;2022-11-20T14:39:36;18.10;41.70
66928;DHT22;59882;45.624;11.698;2022-11-20T14:42:15;17.90;43.90
66928;DHT22;59882;45.624;11.698;2022-11-20T14:44:41;17.60;43.10
66928;DHT22;59882;45.624;11.698;2022-11-20T14:47:15;17.40;43.70
66928;DHT22;59882;45.624;11.698;2022-11-20T14:49:43;17.30;44.50
66928;DHT22;59882;45.624;11.698;2022-11-20T14:52:18;17.20;45.20
66928;DHT22;59882;45.624;11.698;2022-11-20T14:54:49;16.90;46.20
66928;DHT22;59882;45.624;11.698;2022-11-20T14:57:32;16.80;45.90
66928;DHT22;59882;45.624;11.698;2022-11-20T15:00:19;16.60;47.20
66928;DHT22;59882;45.624;11.698;2022-11-20T15:02:48;16.50;48.20
66928;DHT22;59882;45.624;11.698;2022-11-20T15:05:15;16.40;47.90
66928;DHT22;59882;45.624;11.698;2022-11-20T15:07:44;16.20;49.70
66928;DHT22;59882;45.624;11.698;2022-11-20T15:10:23;16.00;50.50
66928;DHT22;59882;45.624;11.698;2022-11-20T15:13:13;15.90;49.90
66928;DHT22;59882;45.624;11.698;2022-11-20T15:15:50;15.70;51.70
66928;DHT22;59882;45.624;11.698;2022-11-20T15:18:19;15.50;52.30
66928;DHT22;59882;45.624;11.698;2022-11-20T15:20:45;15.40;52.80
66928;DHT22;59882;45.624;11.698;2022-11-20T15:23:13;15.20;52.70
66928;DHT22;59882;45.624;11.698;2022-11-20T15:25:42;15.10;53.60
66928;DHT22;59882;45.624;11.698;2022-11-20T15:28:34;14.90;54.20
66928;DHT22;59882;45.624;11.698;2022-11-20T15:31:01;14.80;54.50
66928;DHT22;59882;45.624;11.698;2022-11-20T15:33:28;14.70;55.00
66928;DHT22;59882;45.624;11.698;2022-11-20T15:35:54;14.60;55.70
66928;DHT22;59882;45.624;11.698;2022-11-20T15:38:20;14.40;56.30
66928;DHT22;59882;45.624;11.698;2022-11-20T15:40:45;14.30;56.50
66928;DHT22;59882;45.624;11.698;2022-11-20T15:43:11;14.20;56.70
66928;DHT22;59882;45.624;11.698;2022-11-20T15:45:45;14.10;57.00
66928;DHT22;59882;45.624;11.698;2022-11-20T15:48:15;13.90;57.60
66928;DHT22;59882;45.624;11.698;2022-11-20T15:50:49;13.90;57.40
66928;DHT22;59882;45.624;11.698;2022-11-20T15:53:16;13.70;58.00
66928;DHT22;59882;45.624;11.698;2022-11-20T15:55:41;13.60;58.70
66928;DHT22;59882;45.624;11.698;2022-11-20T15:58:07;13.50;58.80
66928;DHT22;59882;45.624;11.698;2022-11-20T16:00:33;13.40;59.50
66928;DHT22;59882;45.624;11.698;2022-11-20T16:02:58;13.40;58.60
66928;DHT22;59882;45.624;11.698;2022-11-20T16:05:27;13.30;59.80
66928;DHT22;59882;45.624;11.698;2022-11-20T16:07:53;13.20;60.00
66928;DHT22;59882;45.624;11.698;2022-11-20T16:10:19;13.10;60.40
66928;DHT22;59882;45.624;11.698;2022-11-20T16:12:44;13.10;60.00
66928;DHT22;59882;45.624;11.698;2022-11-20T16:15:28;13.00;60.60
66928;DHT22;59882;45.624;11.698;2022-11-20T16:18:19;12.90;59.60
66928;DHT22;59882;45.624;11.698;2022-11-20T16:20:50;12.90;61.00
66928;DHT22;59882;45.624;11.698;2022-11-20T16:23:16;12.80;59.80
66928;DHT22;59882;45.624;11.698;2022-11-20T16:25:43;12.80;61.60
66928;DHT22;59882;45.624;11.698;2022-11-20T16:28:09;12.70;61.10
66928;DHT22;59882;45.624;11.698;2022-11-20T16:30:35;12.70;61.70
66928;DHT22;59882;45.624;11.698;2022-11-20T16:33:01;12.60;61.90
66928;DHT22;59882;45.624;11.698;2022-11-20T16:35:28;12.50;61.50
66928;DHT22;59882;45.624;11.698;2022-11-20T16:37:54;12.50;61.90
66928;DHT22;59882;45.624;11.698;2022-11-20T16:40:21;12.40;62.20
66928;DHT22;59882;45.624;11.698;2022-11-20T16:42:47;12.40;61.90
66928;DHT22;59882;45.624;11.698;2022-11-20T16:45:12;12.30;61.70
66928;DHT22;59882;45.624;11.698;2022-11-20T16:47:38;12.30;61.10
66928;DHT22;59882;45.624;11.698;2022-11-20T16:50:05;12.30;61.80
66928;DHT22;59882;45.624;11.698;2022-11-20T16:52:31;12.20;62.00
66928;DHT22;59882;45.624;11.698;2022-11-20T16:54:57;12.10;62.10
66928;DHT22;59882;45.624;11.698;2022-11-20T16:57:23;12.10;61.50
66928;DHT22;59882;45.624;11.698;2022-11-20T16:59:49;12.00;62.00
66928;DHT22;59882;45.624;11.698;2022-11-20T17:02:15;11.90;61.90
66928;DHT22;59882;45.624;11.698;2022-11-20T17:04:41;11.90;61.70
66928;DHT22;59882;45.624;11.698;2022-11-20T17:07:06;11.90;61.40
66928;DHT22;59882;45.624;11.698;2022-11-20T17:09:33;11.90;62.10
66928;DHT22;59882;45.624;11.698;2022-11-20T17:11:59;11.90;61.40